createdAt,value
2023-02-07T00:02:22.591Z,19.15
2023-02-07T00:04:49.119Z,15.02
2023-02-07T00:07:15.792Z,12.02
2023-02-07T00:09:42.338Z,22.85
2023-02-07T00:12:08.919Z,16.33
2023-02-07T00:14:35.490Z,16.55
2023-02-07T00:17:02.008Z,16.30
2023-02-07T00:19:28.617Z,14.68
2023-02-07T00:21:55.178Z,17.02
2023-02-07T00:24:21.754Z,22.98
2023-02-07T00:26:48.346Z,11.32
2023-02-07T00:29:14.863Z,12.30
2023-02-07T00:31:41.452Z,16.08
2023-02-07T00:34:08.151Z,19.65
2023-02-07T00:36:36.551Z,16.05
2023-02-07T00:39:06.774Z,18.80
2023-02-07T00:41:33.753Z,15.38
2023-02-07T00:44:00.332Z,13.63
2023-02-07T00:46:26.998Z,16.35
2023-02-07T00:48:54.067Z,17.08
2023-02-07T00:51:20.674Z,12.50
2023-02-07T00:53:47.405Z,12.52
2023-02-07T00:56:14.621Z,12.75
2023-02-07T00:58:41.144Z,13.98
2023-02-07T01:01:07.677Z,12.23
2023-02-07T01:03:34.250Z,12.23
2023-02-07T01:06:00.907Z,9.20
2023-02-07T01:08:27.594Z,12.68
2023-02-07T01:10:54.268Z,14.90
2023-02-07T01:13:21.029Z,11.98
2023-02-07T01:15:48.966Z,19.67
2023-02-07T01:18:16.010Z,15.57
2023-02-07T01:20:42.664Z,18.17
2023-02-07T01:23:11.215Z,13.35
2023-02-07T01:25:38.950Z,18.13
2023-02-07T01:28:06.758Z,19.63
2023-02-07T01:30:33.478Z,21.15
2023-02-07T01:33:00.227Z,18.60
2023-02-07T01:35:26.759Z,19.52
2023-02-07T01:37:53.370Z,18.73
2023-02-07T01:40:20.148Z,13.00
2023-02-07T01:42:46.737Z,20.90
2023-02-07T01:45:22.736Z,18.98
2023-02-07T01:47:51.474Z,23.88
2023-02-07T01:50:18.064Z,21.30
2023-02-07T01:52:45.036Z,15.18
2023-02-07T01:55:18.662Z,21.58
2023-02-07T01:57:45.606Z,13.00
2023-02-07T02:00:15.306Z,17.33
2023-02-07T02:02:42.098Z,15.77
2023-02-07T02:05:10.404Z,17.60
2023-02-07T02:07:38.201Z,17.40
2023-02-07T02:10:16.072Z,21.27
2023-02-07T02:13:02.399Z,15.27
2023-02-07T02:15:35.523Z,9.73
2023-02-07T02:18:20.475Z,14.82
2023-02-07T02:21:24.405Z,9.70
2023-02-07T02:24:21.981Z,14.60
2023-02-07T02:27:35.897Z,17.98
2023-02-07T02:30:20.969Z,16.13
2023-02-07T02:32:47.490Z,14.75
2023-02-07T02:35:20.305Z,10.57
2023-02-07T02:38:00.262Z,13.57
2023-02-07T02:40:44.766Z,21.80
2023-02-07T02:43:26.944Z,12.25
2023-02-07T02:45:58.131Z,13.48
2023-02-07T02:48:25.855Z,11.05
2023-02-07T02:50:54.257Z,11.73
2023-02-07T02:53:21.412Z,8.20
2023-02-07T02:56:05.980Z,11.73
2023-02-07T02:58:59.446Z,13.68
2023-02-07T03:01:32.103Z,13.75
2023-02-07T03:04:13.409Z,11.05
2023-02-07T03:07:09.976Z,12.55
2023-02-07T03:09:53.478Z,8.77
2023-02-07T03:12:29.265Z,11.65
2023-02-07T03:15:16.129Z,14.40
2023-02-07T03:18:01.133Z,9.43
2023-02-07T03:20:32.250Z,14.18
2023-02-07T03:23:02.150Z,12.18
2023-02-07T03:25:30.360Z,10.30
2023-02-07T03:27:57.432Z,13.38
2023-02-07T03:30:28.314Z,10.48
2023-02-07T03:33:00.937Z,12.27
2023-02-07T03:35:40.833Z,9.30
2023-02-07T03:38:08.663Z,6.95
2023-02-07T03:40:44.629Z,9.73
2023-02-07T03:43:16.012Z,10.88
2023-02-07T03:45:42.970Z,11.43
2023-02-07T03:48:09.833Z,14.73
2023-02-07T03:50:36.369Z,16.52
2023-02-07T03:53:02.955Z,12.93
2023-02-07T03:55:29.633Z,12.05
2023-02-07T03:57:56.234Z,11.15
2023-02-07T04:00:22.882Z,11.55
2023-02-07T04:02:49.498Z,11.10
2023-02-07T04:05:16.233Z,12.00
2023-02-07T04:07:42.891Z,10.88
2023-02-07T04:10:11.300Z,12.23
2023-02-07T04:12:38.016Z,9.45
2023-02-07T04:15:05.640Z,9.70
2023-02-07T04:17:32.479Z,10.63
2023-02-07T04:19:59.264Z,10.20
2023-02-07T04:22:25.793Z,11.82
2023-02-07T04:24:52.323Z,10.32
2023-02-07T04:27:18.882Z,12.00
2023-02-07T04:29:45.402Z,14.30
2023-02-07T04:32:12.000Z,13.38
2023-02-07T04:34:38.546Z,18.27
2023-02-07T04:37:05.133Z,10.77
2023-02-07T04:39:31.702Z,16.80
2023-02-07T04:41:58.228Z,10.02
2023-02-07T04:44:24.766Z,10.60
2023-02-07T04:46:51.383Z,12.55
2023-02-07T04:49:17.969Z,11.13
2023-02-07T04:51:44.509Z,12.02
2023-02-07T04:54:11.347Z,7.93
2023-02-07T04:56:37.917Z,10.75
2023-02-07T04:59:04.553Z,11.98
2023-02-07T05:01:31.328Z,12.57
2023-02-07T05:03:57.858Z,11.07
2023-02-07T05:06:24.374Z,15.95
2023-02-07T05:08:50.895Z,13.60
2023-02-07T05:11:17.390Z,14.45
2023-02-07T05:13:47.322Z,12.45
2023-02-07T05:16:13.857Z,11.50
2023-02-07T05:18:40.404Z,14.93
2023-02-07T05:21:06.910Z,15.10
2023-02-07T05:23:33.473Z,12.93
2023-02-07T05:25:59.985Z,10.75
2023-02-07T05:28:26.517Z,10.02
2023-02-07T05:30:54.358Z,13.45
2023-02-07T05:33:21.003Z,9.68
2023-02-07T05:35:47.623Z,15.50
2023-02-07T05:38:17.728Z,15.25
2023-02-07T05:40:44.826Z,11.65
2023-02-07T05:43:12.346Z,12.75
2023-02-07T05:45:39.439Z,9.57
2023-02-07T05:48:06.387Z,13.88
2023-02-07T05:50:33.050Z,11.65
2023-02-07T05:52:59.862Z,8.85
2023-02-07T05:55:26.407Z,16.05
2023-02-07T05:57:52.925Z,10.27
2023-02-07T06:00:19.981Z,10.05
2023-02-07T06:02:46.574Z,16.85
2023-02-07T06:05:16.044Z,13.05
2023-02-07T06:07:42.876Z,11.50
2023-02-07T06:10:11.228Z,13.93
2023-02-07T06:12:37.888Z,15.23
2023-02-07T06:15:05.504Z,12.80
2023-02-07T06:17:32.067Z,10.18
2023-02-07T06:19:58.660Z,13.80
2023-02-07T06:22:25.400Z,13.18
2023-02-07T06:24:51.888Z,18.00
2023-02-07T06:27:18.489Z,13.68
2023-02-07T06:29:45.061Z,12.73
2023-02-07T06:32:11.658Z,14.73
2023-02-07T06:34:38.246Z,13.00
2023-02-07T06:37:04.794Z,14.02
2023-02-07T06:39:31.323Z,14.68
2023-02-07T06:41:57.881Z,12.27
2023-02-07T06:44:24.443Z,9.98
2023-02-07T06:46:50.952Z,15.80
2023-02-07T06:49:17.529Z,11.43
2023-02-07T06:51:44.025Z,12.70
2023-02-07T06:54:10.535Z,15.30
2023-02-07T06:56:37.760Z,10.45
2023-02-07T06:59:04.343Z,8.68
2023-02-07T07:01:31.174Z,17.00
2023-02-07T07:03:57.790Z,11.57
2023-02-07T07:06:24.409Z,12.63
2023-02-07T07:08:50.930Z,17.90
2023-02-07T07:11:17.491Z,13.10
2023-02-07T07:13:44.055Z,13.70
2023-02-07T07:16:10.671Z,12.65
2023-02-07T07:18:37.281Z,13.88
2023-02-07T07:21:03.975Z,10.02
2023-02-07T07:23:30.595Z,9.93
2023-02-07T07:25:57.211Z,12.57
2023-02-07T07:28:23.744Z,11.80
2023-02-07T07:30:50.258Z,12.25
2023-02-07T07:33:16.829Z,12.73
2023-02-07T07:35:43.447Z,12.20
2023-02-07T07:38:10.046Z,14.73
2023-02-07T07:40:36.888Z,20.15
2023-02-07T07:43:03.610Z,14.68
2023-02-07T07:45:30.177Z,12.60
2023-02-07T07:47:56.756Z,11.93
2023-02-07T07:50:23.616Z,10.35
2023-02-07T07:52:50.141Z,14.02
2023-02-07T07:55:16.774Z,10.93
2023-02-07T07:57:43.393Z,10.82
2023-02-07T08:00:10.548Z,13.38
2023-02-07T08:02:37.078Z,12.55
2023-02-07T08:05:03.818Z,13.07
2023-02-07T08:07:30.348Z,12.50
2023-02-07T08:09:56.861Z,12.50
2023-02-07T08:12:23.392Z,17.08
2023-02-07T08:14:50.119Z,19.30
2023-02-07T08:17:16.649Z,18.77
2023-02-07T08:19:43.174Z,14.60
2023-02-07T08:22:09.678Z,10.82
2023-02-07T08:24:36.395Z,10.07
2023-02-07T08:27:03.657Z,10.32
2023-02-07T08:29:30.295Z,9.93
2023-02-07T08:31:56.893Z,11.32
2023-02-07T08:34:23.561Z,10.00
2023-02-07T08:36:50.427Z,9.02
2023-02-07T08:39:17.006Z,8.73
2023-02-07T08:41:43.565Z,9.77
2023-02-07T08:44:10.139Z,9.82
2023-02-07T08:46:36.779Z,9.18
2023-02-07T08:49:03.529Z,10.38
2023-02-07T08:51:30.083Z,11.13
2023-02-07T08:53:56.581Z,8.23
2023-02-07T08:56:23.167Z,10.77
2023-02-07T08:58:49.776Z,8.77
2023-02-07T09:01:16.387Z,9.48
2023-02-07T09:03:42.991Z,9.10
2023-02-07T09:06:09.562Z,8.52
2023-02-07T09:08:36.163Z,8.75
2023-02-07T09:11:08.782Z,8.98
2023-02-07T09:13:35.525Z,9.90
2023-02-07T09:16:02.100Z,12.10
2023-02-07T09:18:28.711Z,10.57
2023-02-07T09:20:55.266Z,7.68
2023-02-07T09:23:21.816Z,10.32
2023-02-07T09:25:50.518Z,6.93
2023-02-07T09:28:17.865Z,8.02
2023-02-07T09:30:46.506Z,6.82
2023-02-07T09:33:14.689Z,7.88
2023-02-07T09:35:43.389Z,7.35
2023-02-07T09:38:15.067Z,6.03
2023-02-07T09:40:42.658Z,8.13
2023-02-07T09:43:21.442Z,6.95
2023-02-07T09:45:52.766Z,6.32
2023-02-07T09:48:33.079Z,6.45
2023-02-07T09:51:04.152Z,7.07
2023-02-07T09:53:44.919Z,5.00
2023-02-07T09:56:15.696Z,5.32
2023-02-07T09:58:44.295Z,4.50
2023-02-07T10:01:19.104Z,4.38
2023-02-07T10:04:01.546Z,8.02
2023-02-07T10:06:28.452Z,6.45
2023-02-07T10:08:57.428Z,7.20
2023-02-07T10:11:47.800Z,6.88
2023-02-07T10:14:51.668Z,6.55
2023-02-07T10:17:35.962Z,8.20
2023-02-07T10:20:24.305Z,6.47
2023-02-07T10:23:11.834Z,5.75
2023-02-07T10:25:51.871Z,5.70
2023-02-07T10:28:47.308Z,6.25
2023-02-07T10:31:16.103Z,7.45
2023-02-07T10:33:55.017Z,7.50
2023-02-07T10:36:24.047Z,6.45
2023-02-07T10:39:09.636Z,8.45
2023-02-07T10:41:42.393Z,8.13
2023-02-07T10:44:19.713Z,5.70
2023-02-07T10:46:50.763Z,9.73
2023-02-07T10:49:24.751Z,7.55
2023-02-07T10:51:55.834Z,7.10
2023-02-07T10:54:22.536Z,6.20
2023-02-07T10:57:01.473Z,7.07
2023-02-07T10:59:44.785Z,5.93
2023-02-07T11:02:45.592Z,6.45
2023-02-07T11:05:18.064Z,7.22
2023-02-07T11:08:06.248Z,9.32
2023-02-07T11:10:37.947Z,5.75
2023-02-07T11:13:11.695Z,5.60
2023-02-07T11:16:02.911Z,7.93
2023-02-07T11:18:45.666Z,7.47
2023-02-07T11:21:30.515Z,5.22
2023-02-07T11:24:06.617Z,5.88
2023-02-07T11:26:35.629Z,7.72
2023-02-07T11:29:13.568Z,7.10
2023-02-07T11:31:40.698Z,7.70
2023-02-07T11:34:27.388Z,6.43
2023-02-07T11:36:54.339Z,7.07
2023-02-07T11:39:23.553Z,8.75
2023-02-07T11:41:58.231Z,7.68
2023-02-07T11:44:27.628Z,8.07
2023-02-07T11:46:59.198Z,6.10
2023-02-07T11:49:40.822Z,5.22
2023-02-07T11:52:08.559Z,6.30
2023-02-07T11:54:36.271Z,5.38
2023-02-07T11:57:10.693Z,6.82
2023-02-07T11:59:46.350Z,5.95
2023-02-07T12:02:25.298Z,6.35
2023-02-07T12:04:53.182Z,5.80
2023-02-07T12:07:22.448Z,5.80
2023-02-07T12:09:51.391Z,6.30
2023-02-07T12:12:43.963Z,5.50
2023-02-07T12:15:32.303Z,6.10
2023-02-07T12:18:13.744Z,5.10
2023-02-07T12:21:03.808Z,7.32
2023-02-07T12:23:45.626Z,8.13
2023-02-07T12:29:13.258Z,7.15
2023-02-07T12:32:02.004Z,7.15
2023-02-07T12:34:41.915Z,6.07
2023-02-07T12:37:54.396Z,6.68
2023-02-07T12:40:43.663Z,6.45
2023-02-07T12:43:32.803Z,5.68
2023-02-07T12:46:02.186Z,5.53
2023-02-07T12:49:25.559Z,5.57
2023-02-07T12:52:47.521Z,5.50
2023-02-07T12:55:23.174Z,5.63
2023-02-07T12:58:28.268Z,7.10
2023-02-07T13:01:08.304Z,5.93
2023-02-07T13:03:59.562Z,6.35
2023-02-07T13:06:57.665Z,7.10
2023-02-07T13:09:36.196Z,6.55
2023-02-07T13:12:35.147Z,6.28
2023-02-07T13:15:19.930Z,8.38
2023-02-07T13:18:06.243Z,6.72
2023-02-07T13:20:44.796Z,6.28
2023-02-07T13:23:40.109Z,7.25
2023-02-07T13:26:11.872Z,7.55
2023-02-07T13:28:52.267Z,6.82
2023-02-07T13:31:23.694Z,10.20
2023-02-07T13:33:52.108Z,7.63
2023-02-07T13:36:28.586Z,6.35
2023-02-07T13:39:21.509Z,6.18
2023-02-07T13:41:56.709Z,6.18
2023-02-07T13:45:00.973Z,5.60
2023-02-07T13:47:45.449Z,6.60
2023-02-07T13:50:26.934Z,5.72
2023-02-07T13:53:36.035Z,5.32
2023-02-07T13:56:08.168Z,5.70
2023-02-07T13:58:34.675Z,5.60
2023-02-07T14:01:14.057Z,5.07
2023-02-07T14:03:40.823Z,5.55
2023-02-07T14:06:29.156Z,6.75
2023-02-07T14:09:01.299Z,6.65
2023-02-07T14:11:38.649Z,7.57
2023-02-07T14:14:22.044Z,5.53
2023-02-07T14:16:58.223Z,4.95
2023-02-07T14:19:52.047Z,5.95
2023-02-07T14:22:24.979Z,5.57
2023-02-07T14:25:21.941Z,6.05
2023-02-07T14:27:51.542Z,5.80
2023-02-07T14:30:19.518Z,6.82
2023-02-07T14:33:14.070Z,6.22
2023-02-07T14:36:19.907Z,5.20
2023-02-07T14:39:04.764Z,6.72
2023-02-07T14:41:34.231Z,5.65
2023-02-07T14:44:09.628Z,7.57
2023-02-07T14:49:21.645Z,7.97
2023-02-07T14:51:54.716Z,6.43
2023-02-07T14:54:47.444Z,7.03
2023-02-07T14:57:33.584Z,6.78
2023-02-07T15:00:15.110Z,5.80
2023-02-07T15:02:53.556Z,6.90
2023-02-07T15:05:26.474Z,7.30
2023-02-07T15:08:02.174Z,6.32
2023-02-07T15:10:41.170Z,7.78
2023-02-07T15:13:22.052Z,5.35
2023-02-07T15:15:53.397Z,9.27
2023-02-07T15:18:22.603Z,7.88
2023-02-07T15:20:52.576Z,7.20
2023-02-07T15:23:20.300Z,8.85
2023-02-07T15:25:47.304Z,6.55
2023-02-07T15:28:26.688Z,7.30
2023-02-07T15:31:04.808Z,8.10
2023-02-07T15:33:34.963Z,8.30
2023-02-07T15:36:01.457Z,7.57
2023-02-07T15:38:28.114Z,5.78
2023-02-07T15:40:55.253Z,6.45
2023-02-07T15:43:28.073Z,8.82
2023-02-07T15:45:59.903Z,7.35
2023-02-07T15:48:26.516Z,8.15
2023-02-07T15:50:55.816Z,5.55
2023-02-07T15:53:26.732Z,7.72
2023-02-07T15:55:54.210Z,8.98
2023-02-07T15:58:25.644Z,8.85
2023-02-07T16:00:52.808Z,9.52
2023-02-07T16:03:27.595Z,7.40
2023-02-07T16:06:01.791Z,8.88
2023-02-07T16:08:39.644Z,8.80
2023-02-07T16:11:14.574Z,8.02
2023-02-07T16:13:45.448Z,9.10
2023-02-07T16:16:54.796Z,7.32
2023-02-07T16:19:24.238Z,7.53
2023-02-07T16:21:57.415Z,8.23
2023-02-07T16:24:24.959Z,7.18
2023-02-07T16:26:51.831Z,11.13
2023-02-07T16:29:24.566Z,7.40
2023-02-07T16:31:52.488Z,8.85
2023-02-07T16:34:20.039Z,7.25
2023-02-07T16:36:51.772Z,7.45
2023-02-07T16:39:18.517Z,10.23
2023-02-07T16:41:48.488Z,7.50
2023-02-07T16:44:23.734Z,9.30
2023-02-07T16:46:50.436Z,7.72
2023-02-07T16:49:22.802Z,8.25
2023-02-07T16:51:49.688Z,9.07
2023-02-07T16:54:16.320Z,7.60
2023-02-07T16:56:44.463Z,8.38
2023-02-07T16:59:17.316Z,11.35
2023-02-07T17:01:44.481Z,7.72
2023-02-07T17:04:11.677Z,8.38
2023-02-07T17:06:39.304Z,9.07
2023-02-07T17:09:17.615Z,8.70
2023-02-07T17:11:44.231Z,7.45
2023-02-07T17:14:10.827Z,9.10
2023-02-07T17:16:38.640Z,7.78
2023-02-07T17:19:16.098Z,13.98
2023-02-07T17:21:42.923Z,8.70
2023-02-07T17:24:10.355Z,9.68
2023-02-07T17:26:38.397Z,9.60
2023-02-07T17:29:05.975Z,10.43
2023-02-07T17:31:32.906Z,9.27
2023-02-07T17:33:59.612Z,9.68
2023-02-07T17:36:26.172Z,7.78
2023-02-07T17:38:52.748Z,7.88
2023-02-07T17:41:19.279Z,11.88
2023-02-07T17:43:45.825Z,10.20
2023-02-07T17:46:21.254Z,10.55
2023-02-07T17:48:49.346Z,8.52
2023-02-07T17:51:16.760Z,8.82
2023-02-07T17:53:43.345Z,10.23
2023-02-07T17:56:26.028Z,12.45
2023-02-07T17:58:53.917Z,14.32
2023-02-07T18:01:20.855Z,17.00
2023-02-07T18:03:49.211Z,16.63
2023-02-07T18:06:18.197Z,14.77
2023-02-07T18:08:45.809Z,16.20
2023-02-07T18:11:12.697Z,16.92
2023-02-07T18:13:43.030Z,10.98
2023-02-07T18:18:38.871Z,11.90
2023-02-07T18:21:05.723Z,13.55
2023-02-07T18:23:32.956Z,17.60
2023-02-07T18:25:59.498Z,15.85
2023-02-07T18:28:26.122Z,20.15
2023-02-07T18:30:52.913Z,16.23
2023-02-07T18:33:19.483Z,16.42
2023-02-07T18:35:46.256Z,13.32
2023-02-07T18:38:12.856Z,13.00
2023-02-07T18:40:40.425Z,15.80
2023-02-07T18:43:07.135Z,15.73
2023-02-07T18:45:33.841Z,15.52
2023-02-07T18:48:00.307Z,13.98
2023-02-07T18:50:26.794Z,14.20
2023-02-07T18:52:53.332Z,15.55
2023-02-07T18:55:20.976Z,12.15
2023-02-07T18:57:47.524Z,10.63
2023-02-07T19:00:14.487Z,14.40
2023-02-07T19:02:40.985Z,13.27
2023-02-07T19:05:07.734Z,16.80
2023-02-07T19:07:34.248Z,13.52
2023-02-07T19:10:01.205Z,15.23
2023-02-07T19:12:27.772Z,11.63
2023-02-07T19:14:54.272Z,13.93
2023-02-07T19:17:20.799Z,10.85
2023-02-07T19:19:47.308Z,10.65
2023-02-07T19:22:15.099Z,14.05
2023-02-07T19:24:44.361Z,12.05
2023-02-07T19:27:10.937Z,13.45
2023-02-07T19:29:37.576Z,10.85
2023-02-07T19:32:07.632Z,11.07
2023-02-07T19:34:35.220Z,13.52
2023-02-07T19:37:01.932Z,15.35
2023-02-07T19:39:28.931Z,10.60
2023-02-07T19:41:55.462Z,11.23
2023-02-07T19:44:21.975Z,10.10
2023-02-07T19:46:48.650Z,12.52
2023-02-07T19:49:15.848Z,12.00
2023-02-07T19:51:42.863Z,10.35
2023-02-07T19:54:09.958Z,10.98
2023-02-07T19:56:38.252Z,7.97
2023-02-07T19:59:06.764Z,7.72
2023-02-07T20:01:36.461Z,9.68
2023-02-07T20:04:03.103Z,10.40
2023-02-07T20:06:31.602Z,11.35
2023-02-07T20:08:59.683Z,11.15
2023-02-07T20:11:27.160Z,10.00
2023-02-07T20:13:55.317Z,9.02
2023-02-07T20:16:24.152Z,9.95
2023-02-07T20:18:52.735Z,10.70
2023-02-07T20:21:25.100Z,8.75
2023-02-07T20:23:53.732Z,8.77
2023-02-07T20:26:23.944Z,8.73
2023-02-07T20:28:51.131Z,8.30
2023-02-07T20:31:20.913Z,7.53
2023-02-07T20:33:47.555Z,11.13
2023-02-07T20:36:17.006Z,8.85
2023-02-07T20:38:45.807Z,9.43
2023-02-07T20:41:15.508Z,8.60
2023-02-07T20:43:43.080Z,10.23
2023-02-07T20:46:14.690Z,9.35
2023-02-07T20:48:42.263Z,10.02
2023-02-07T20:51:10.431Z,8.75
2023-02-07T20:53:43.202Z,10.50
2023-02-07T20:56:17.147Z,8.75
2023-02-07T20:58:44.721Z,10.88
2023-02-07T21:01:20.025Z,8.00
2023-02-07T21:03:48.836Z,8.70
2023-02-07T21:06:15.328Z,12.43
2023-02-07T21:08:41.959Z,9.48
2023-02-07T21:11:11.216Z,7.68
2023-02-07T21:13:38.542Z,9.75
2023-02-07T21:16:07.268Z,10.05
2023-02-07T21:18:35.053Z,10.35
2023-02-07T21:21:06.603Z,12.55
2023-02-07T21:23:33.452Z,9.65
2023-02-07T21:26:04.883Z,10.43
2023-02-07T21:28:32.602Z,11.68
2023-02-07T21:31:08.651Z,10.18
2023-02-07T21:33:35.661Z,12.65
2023-02-07T21:36:08.248Z,8.82
2023-02-07T21:38:35.621Z,8.23
2023-02-07T21:41:04.540Z,10.00
2023-02-07T21:43:31.190Z,8.68
2023-02-07T21:46:09.056Z,9.90
2023-02-07T21:48:37.381Z,9.65
2023-02-07T21:51:06.699Z,8.27
2023-02-07T21:53:34.020Z,10.85
2023-02-07T21:56:02.336Z,8.80
2023-02-07T21:58:29.084Z,11.00
2023-02-07T22:00:55.906Z,11.55
2023-02-07T22:03:22.487Z,9.73
2023-02-07T22:05:51.419Z,9.18
2023-02-07T22:08:17.983Z,10.02
2023-02-07T22:10:44.546Z,11.88
2023-02-07T22:13:12.672Z,8.73
2023-02-07T22:15:39.258Z,9.82
2023-02-07T22:18:05.921Z,6.88
2023-02-07T22:20:32.676Z,11.10
2023-02-07T22:22:59.226Z,10.13
2023-02-07T22:25:25.713Z,9.23
2023-02-07T22:27:52.271Z,13.10
2023-02-07T22:30:18.953Z,11.23
2023-02-07T22:32:45.443Z,8.10
2023-02-07T22:35:12.013Z,11.68
2023-02-07T22:37:38.548Z,13.20
2023-02-07T22:40:05.577Z,9.88
2023-02-07T22:42:33.748Z,8.23
2023-02-07T22:45:00.284Z,10.60
2023-02-07T22:47:26.995Z,9.65
2023-02-07T22:49:53.527Z,7.10
2023-02-07T22:52:20.046Z,9.77
2023-02-07T22:54:46.585Z,8.20
2023-02-07T22:57:13.112Z,9.82
2023-02-07T22:59:39.750Z,5.53
2023-02-07T23:02:06.232Z,8.07
2023-02-07T23:04:32.786Z,12.80
2023-02-07T23:06:59.270Z,8.80
2023-02-07T23:09:25.746Z,9.20
2023-02-07T23:11:52.295Z,8.70
2023-02-07T23:14:18.791Z,8.68
2023-02-07T23:16:45.303Z,9.02
2023-02-07T23:19:16.865Z,10.70
2023-02-07T23:21:43.921Z,8.95
2023-02-07T23:24:11.040Z,6.88
2023-02-07T23:26:37.631Z,10.70
2023-02-07T23:29:05.100Z,7.72
2023-02-07T23:31:31.829Z,13.75
2023-02-07T23:33:58.560Z,8.65
2023-02-07T23:36:25.201Z,10.30
2023-02-07T23:38:51.748Z,8.75
2023-02-07T23:41:18.602Z,7.70
2023-02-07T23:43:45.603Z,9.35
2023-02-07T23:46:13.932Z,10.55
2023-02-07T23:48:40.457Z,12.50
2023-02-07T23:51:07.388Z,12.20
2023-02-07T23:53:34.156Z,13.23
2023-02-07T23:56:01.390Z,8.48
2023-02-07T23:58:28.164Z,7.88
